English Creek, New Jersey
Current Conditions -  °F | °C
As of 12:54 AM on Thursday 29 Jan 2015 (Local Time) from KACY Reporting Station
Clear Clear  
Wind Chill: 12°   Ceiling: Unl
Heat Index: 20°   Visibility: 10mi
Dew Point:   Wind: 6mph
Humidity: 50%   Direction: 350°N
Pressure: 30.29"   Gusts: NA
Location:  39.4502°N, 74.7366°W
Report Text: KACY 290554Z 35005KT 10SM CLR M07/M16 A3029 RMK AO2 SLP256 T10671156 11033 21067 51008
Loading
Personal Weather Stations






























Interactive Weather Map New forecast layout! Learn more

10-Day Weather Forecast

Advertisements
Track Severe Weather on mobile